createdAt,value
2023-03-14T00:03:03.642Z,15.47
2023-03-14T00:08:07.695Z,14.19
2023-03-14T00:13:10.390Z,15.37
2023-03-14T00:18:13.197Z,14.29
2023-03-14T00:23:15.936Z,15.41
2023-03-14T00:28:18.659Z,14.43
2023-03-14T00:33:22.334Z,15.28
2023-03-14T00:38:25.737Z,15.66
2023-03-14T00:43:28.418Z,14.04
2023-03-14T00:48:31.157Z,15.41
2023-03-14T00:53:38.609Z,14.28
2023-03-14T00:58:41.414Z,14.89
2023-03-14T01:03:44.389Z,15.21
2023-03-14T01:08:48.103Z,14.02
2023-03-14T01:13:51.190Z,15.07
2023-03-14T01:18:54.345Z,14.03
2023-03-14T01:23:59.143Z,15.53
2023-03-14T01:29:02.908Z,14.58
2023-03-14T01:34:05.628Z,14.39
2023-03-14T01:39:11.992Z,14.78
2023-03-14T01:44:15.931Z,13.86
2023-03-14T01:49:27.892Z,14.76
2023-03-14T01:54:42.024Z,13.71
2023-03-14T02:00:05.231Z,14.87
2023-03-14T02:05:09.938Z,13.40
2023-03-14T02:10:19.678Z,14.73
2023-03-14T02:15:25.447Z,13.26
2023-03-14T02:20:40.243Z,14.29
2023-03-14T02:25:48.879Z,13.62
2023-03-14T02:30:51.624Z,13.34
2023-03-14T02:36:00.793Z,14.39
2023-03-14T02:41:03.708Z,12.99
2023-03-14T02:46:07.350Z,14.23
2023-03-14T02:51:10.211Z,12.90
2023-03-14T02:56:13.542Z,13.86
2023-03-14T03:01:18.513Z,13.43
2023-03-14T03:06:21.857Z,13.28
2023-03-14T03:11:24.624Z,13.44
2023-03-14T03:16:27.486Z,13.24
2023-03-14T03:21:30.288Z,13.73
2023-03-14T03:26:37.628Z,12.63
2023-03-14T03:31:40.481Z,13.90
2023-03-14T03:36:43.509Z,12.55
2023-03-14T03:41:46.224Z,13.74
2023-03-14T03:46:48.960Z,12.77
2023-03-14T03:51:51.774Z,13.24
2023-03-14T03:56:54.518Z,13.55
2023-03-14T04:01:57.344Z,12.27
2023-03-14T04:07:00.297Z,13.63
2023-03-14T04:12:03.033Z,13.28
2023-03-14T04:17:05.761Z,12.86
2023-03-14T04:22:09.092Z,13.46
2023-03-14T04:27:11.777Z,12.53
2023-03-14T04:32:14.503Z,13.50
2023-03-14T04:37:17.295Z,12.44
2023-03-14T04:42:19.993Z,13.60
2023-03-14T04:47:22.729Z,12.68
2023-03-14T04:52:25.784Z,13.69
2023-03-14T04:57:28.504Z,13.02
2023-03-14T05:02:31.253Z,13.26
2023-03-14T05:07:34.082Z,14.28
2023-03-14T05:12:36.953Z,12.59
2023-03-14T05:17:39.688Z,14.01
2023-03-14T05:22:42.635Z,14.98
2023-03-14T05:27:45.360Z,13.09
2023-03-14T05:32:49.108Z,11.93
2023-03-14T05:37:51.897Z,12.74
2023-03-14T05:42:54.636Z,15.48
2023-03-14T05:47:57.384Z,14.57
2023-03-14T05:53:00.135Z,12.69
2023-03-14T05:58:02.907Z,12.88
2023-03-14T06:03:07.588Z,14.62
2023-03-14T06:08:10.842Z,13.49
2023-03-14T06:13:16.411Z,15.24
2023-03-14T06:18:19.263Z,14.11
2023-03-14T06:23:22.999Z,13.98
2023-03-14T06:28:26.268Z,14.99
2023-03-14T06:33:29.239Z,13.31
2023-03-14T06:38:31.975Z,15.13
2023-03-14T06:43:34.985Z,14.18
2023-03-14T06:48:37.745Z,12.60
2023-03-14T06:53:42.426Z,13.72
2023-03-14T06:58:49.627Z,14.84
2023-03-14T07:03:53.360Z,12.88
2023-03-14T07:08:56.828Z,13.15
2023-03-14T07:13:59.693Z,15.67
2023-03-14T07:19:03.668Z,14.94
2023-03-14T07:24:06.860Z,13.15
2023-03-14T07:29:09.772Z,13.47
2023-03-14T07:34:12.663Z,14.30
2023-03-14T07:39:15.429Z,12.79
2023-03-14T07:44:18.243Z,13.56
2023-03-14T07:49:20.971Z,13.03
2023-03-14T07:54:24.721Z,13.36
2023-03-14T07:59:28.706Z,14.92
2023-03-14T08:04:31.528Z,13.32
2023-03-14T08:09:34.452Z,12.81
2023-03-14T08:14:37.285Z,14.46
2023-03-14T08:19:42.464Z,13.14
2023-03-14T08:24:45.254Z,12.78
2023-03-14T08:29:50.955Z,13.97
2023-03-14T08:34:55.698Z,12.96
2023-03-14T08:40:10.894Z,13.81
2023-03-14T08:45:15.979Z,15.12
2023-03-14T08:50:20.496Z,13.75
2023-03-14T08:55:33.875Z,13.06
2023-03-14T09:00:39.552Z,13.95
2023-03-14T09:05:42.557Z,14.50
2023-03-14T09:10:47.662Z,13.32
2023-03-14T09:15:55.043Z,13.50
2023-03-14T09:21:00.311Z,14.68
2023-03-14T09:26:04.657Z,13.65
2023-03-14T09:31:12.313Z,13.81
2023-03-14T09:36:15.187Z,15.11
2023-03-14T09:41:47.175Z,14.00
2023-03-14T09:46:58.483Z,13.32
2023-03-14T09:52:15.336Z,14.63
2023-03-14T09:57:24.372Z,14.40
2023-03-14T10:02:38.988Z,13.56
2023-03-14T10:07:47.080Z,13.63
2023-03-14T10:13:09.651Z,14.94
2023-03-14T10:18:13.999Z,13.91
2023-03-14T10:23:25.792Z,13.43
2023-03-14T10:28:31.608Z,15.51
2023-03-14T10:33:39.094Z,15.12
2023-03-14T10:38:42.641Z,13.96
2023-03-14T10:43:46.260Z,13.40
2023-03-14T10:48:52.671Z,14.95
2023-03-14T10:54:30.821Z,14.38
2023-03-14T10:59:40.304Z,13.74
2023-03-14T11:05:27.243Z,15.18
2023-03-14T11:10:44.361Z,14.16
2023-03-14T11:15:59.243Z,13.97
2023-03-14T11:21:49.557Z,15.39
2023-03-14T11:27:11.698Z,14.05
2023-03-14T11:32:33.121Z,15.10
2023-03-14T11:37:51.564Z,15.32
2023-03-14T11:43:09.754Z,14.44
2023-03-14T11:48:49.755Z,14.52
2023-03-14T11:54:04.372Z,15.82
2023-03-14T11:59:18.036Z,14.67
2023-03-14T12:04:29.940Z,14.09
2023-03-14T12:09:34.343Z,15.60
2023-03-14T12:14:45.877Z,14.70
2023-03-14T12:20:02.851Z,14.24
2023-03-14T12:25:20.554Z,15.37
2023-03-14T12:30:32.751Z,14.09
2023-03-14T12:35:39.552Z,15.01
2023-03-14T12:41:12.018Z,15.32
2023-03-14T12:46:22.070Z,14.06
2023-03-14T12:51:40.772Z,15.55
2023-03-14T12:56:59.080Z,15.12
2023-03-14T13:17:36.375Z,14.39
2023-03-14T13:22:39.964Z,15.27
2023-03-14T13:27:43.406Z,15.39
2023-03-14T13:32:48.929Z,14.17
2023-03-14T13:38:12.194Z,15.16
2023-03-14T13:43:19.595Z,14.67
2023-03-14T13:48:26.481Z,14.11
2023-03-14T13:53:29.161Z,15.45
2023-03-14T13:58:33.127Z,14.15
2023-03-14T14:03:40.089Z,14.66
2023-03-14T14:08:43.054Z,15.19
2023-03-14T14:13:46.077Z,13.94
2023-03-14T14:18:49.096Z,14.71
2023-03-14T14:23:52.026Z,15.42
2023-03-14T14:29:04.334Z,14.53
2023-03-14T14:34:23.074Z,14.09
2023-03-14T14:39:30.165Z,15.17
2023-03-14T14:44:37.266Z,15.78
2023-03-14T14:49:39.964Z,16.20
2023-03-14T14:54:50.622Z,16.35
2023-03-14T14:59:57.499Z,15.59
2023-03-14T15:05:00.633Z,14.71
2023-03-14T15:10:04.230Z,13.98
2023-03-14T15:15:07.802Z,13.47
2023-03-14T15:20:16.291Z,14.69
2023-03-14T15:25:43.533Z,14.40
2023-03-14T15:30:41.786Z,13.50
2023-03-14T15:35:44.829Z,14.81
2023-03-14T15:40:48.135Z,14.06
2023-03-14T15:45:51.597Z,13.82
2023-03-14T15:50:54.378Z,15.15
2023-03-14T15:55:57.066Z,13.84
2023-03-14T16:00:59.981Z,14.38
2023-03-14T16:06:03.059Z,14.73
2023-03-14T16:11:06.341Z,13.56
2023-03-14T16:16:09.781Z,14.95
2023-03-14T16:21:15.336Z,14.59
2023-03-14T16:26:20.130Z,13.62
2023-03-14T16:31:25.100Z,15.14
2023-03-14T16:36:28.888Z,14.06
2023-03-14T16:41:34.108Z,13.79
2023-03-14T16:46:39.284Z,14.77
2023-03-14T16:51:43.229Z,13.54
2023-03-14T16:56:47.985Z,14.78
2023-03-14T17:01:50.774Z,14.77
2023-03-14T17:06:53.633Z,13.39
2023-03-14T17:11:56.352Z,14.46
2023-03-14T17:16:59.078Z,14.24
2023-03-14T17:27:24.495Z,14.66
2023-03-14T17:32:27.242Z,13.65
2023-03-14T17:37:30.065Z,14.86
2023-03-14T17:42:32.852Z,13.62
2023-03-14T17:47:35.501Z,14.88
2023-03-14T17:52:38.668Z,14.29
2023-03-14T17:57:44.126Z,13.77
2023-03-14T18:02:46.981Z,14.77
2023-03-14T18:07:49.936Z,13.48
2023-03-14T18:12:52.732Z,14.86
2023-03-14T18:17:55.638Z,14.08
2023-03-14T18:23:00.686Z,14.41
2023-03-14T18:28:03.405Z,14.06
2023-03-14T18:33:06.150Z,14.12
2023-03-14T18:38:08.953Z,14.40
2023-03-14T18:43:11.688Z,13.76
2023-03-14T18:48:15.720Z,14.67
2023-03-14T18:53:19.022Z,13.71
2023-03-14T18:58:26.132Z,14.66
2023-03-14T19:03:29.801Z,13.75
2023-03-14T19:08:34.912Z,14.63
2023-03-14T19:13:38.924Z,13.56
2023-03-14T19:18:42.338Z,14.77
2023-03-14T19:23:49.276Z,13.74
2023-03-14T19:28:55.021Z,15.01
2023-03-14T19:33:58.879Z,13.94
2023-03-14T19:39:04.104Z,14.42
2023-03-14T19:44:07.325Z,14.21
2023-03-14T19:49:10.112Z,14.34
2023-03-14T19:54:12.778Z,14.17
2023-03-14T19:59:15.714Z,13.94
2023-03-14T20:04:18.519Z,14.43
2023-03-14T20:09:22.213Z,13.95
2023-03-14T20:14:24.949Z,14.39
2023-03-14T20:19:28.216Z,14.02
2023-03-14T20:24:32.487Z,14.56
2023-03-14T20:29:35.164Z,13.82
2023-03-14T20:34:39.223Z,14.71
2023-03-14T20:39:41.950Z,13.53
2023-03-14T20:44:45.428Z,15.18
2023-03-14T20:49:48.119Z,13.92
2023-03-14T20:54:50.840Z,13.76
2023-03-14T20:59:53.565Z,14.38
2023-03-14T21:04:58.061Z,13.39
2023-03-14T21:10:00.845Z,14.66
2023-03-14T21:15:05.061Z,13.59
2023-03-14T21:20:12.735Z,14.96
2023-03-14T21:25:15.403Z,13.61
2023-03-14T21:30:18.409Z,14.74
2023-03-14T21:35:21.130Z,14.32
2023-03-14T21:40:24.541Z,13.58
2023-03-14T21:45:27.557Z,15.54
2023-03-14T21:50:30.316Z,14.07
2023-03-14T21:55:33.088Z,13.65
2023-03-14T22:00:36.045Z,13.79
2023-03-14T22:05:41.304Z,11.15
2023-03-14T22:10:48.867Z,10.65
2023-03-14T22:15:51.643Z,11.08
2023-03-14T22:20:54.523Z,8.95
2023-03-14T22:25:57.426Z,10.48
2023-03-14T22:31:03.170Z,9.60
2023-03-14T22:36:07.065Z,8.08
2023-03-14T22:41:09.796Z,9.69
2023-03-14T22:46:12.556Z,8.06
2023-03-14T22:51:15.372Z,7.93
2023-03-14T22:56:18.062Z,9.96
2023-03-14T23:01:20.902Z,8.04
2023-03-14T23:06:23.609Z,8.23
2023-03-14T23:11:26.418Z,9.03
2023-03-14T23:16:39.676Z,7.19
2023-03-14T23:21:43.089Z,8.99
2023-03-14T23:26:46.215Z,7.96
2023-03-14T23:31:49.165Z,7.12
2023-03-14T23:36:51.946Z,8.64
2023-03-14T23:41:54.637Z,6.94
2023-03-14T23:46:57.474Z,8.76
2023-03-14T23:52:00.509Z,9.18
2023-03-14T23:57:05.532Z,6.91
